sensor_id;sensor_type;location;lat;lon;timestamp;P1;durP1;ratioP1;P2;durP2;ratioP2
52025;SDS011;38041;40.058;18.328;2023-04-12T00:01:24;14.00;;;7.87;;
52025;SDS011;38041;40.058;18.328;2023-04-12T00:03:53;9.37;;;6.97;;
52025;SDS011;38041;40.058;18.328;2023-04-12T00:06:21;11.60;;;7.37;;
52025;SDS011;38041;40.058;18.328;2023-04-12T00:08:58;12.23;;;7.27;;
52025;SDS011;38041;40.058;18.328;2023-04-12T00:11:26;14.20;;;7.80;;
52025;SDS011;38041;40.058;18.328;2023-04-12T00:13:54;14.07;;;6.73;;
52025;SDS011;38041;40.058;18.328;2023-04-12T00:16:22;20.40;;;9.13;;
52025;SDS011;38041;40.058;18.328;2023-04-12T00:18:50;29.83;;;18.50;;
52025;SDS011;38041;40.058;18.328;2023-04-12T00:21:17;36.73;;;19.67;;
52025;SDS011;38041;40.058;18.328;2023-04-12T00:23:45;28.27;;;16.63;;
52025;SDS011;38041;40.058;18.328;2023-04-12T00:26:13;19.93;;;10.37;;
52025;SDS011;38041;40.058;18.328;2023-04-12T00:28:41;17.77;;;8.53;;
52025;SDS011;38041;40.058;18.328;2023-04-12T00:31:10;15.83;;;7.83;;
52025;SDS011;38041;40.058;18.328;2023-04-12T00:33:38;11.17;;;7.20;;
52025;SDS011;38041;40.058;18.328;2023-04-12T00:36:06;15.17;;;7.13;;
52025;SDS011;38041;40.058;18.328;2023-04-12T00:38:36;11.80;;;6.57;;
52025;SDS011;38041;40.058;18.328;2023-04-12T00:41:04;11.80;;;6.23;;
52025;SDS011;38041;40.058;18.328;2023-04-12T00:43:32;11.97;;;6.47;;
52025;SDS011;38041;40.058;18.328;2023-04-12T00:46:00;9.77;;;7.17;;
52025;SDS011;38041;40.058;18.328;2023-04-12T00:48:28;13.13;;;6.80;;
52025;SDS011;38041;40.058;18.328;2023-04-12T00:50:57;14.70;;;5.57;;
52025;SDS011;38041;40.058;18.328;2023-04-12T00:53:25;9.23;;;6.30;;
52025;SDS011;38041;40.058;18.328;2023-04-12T00:55:53;11.97;;;5.80;;
52025;SDS011;38041;40.058;18.328;2023-04-12T00:58:22;11.27;;;5.63;;
52025;SDS011;38041;40.058;18.328;2023-04-12T01:00:50;11.30;;;5.37;;
52025;SDS011;38041;40.058;18.328;2023-04-12T01:03:18;9.57;;;5.63;;
52025;SDS011;38041;40.058;18.328;2023-04-12T01:14:23;17.33;;;7.90;;
52025;SDS011;38041;40.058;18.328;2023-04-12T01:16:56;10.70;;;6.03;;
52025;SDS011;38041;40.058;18.328;2023-04-12T01:19:32;12.37;;;6.10;;
52025;SDS011;38041;40.058;18.328;2023-04-12T01:22:08;16.03;;;6.97;;
52025;SDS011;38041;40.058;18.328;2023-04-12T01:27:44;11.10;;;5.57;;
52025;SDS011;38041;40.058;18.328;2023-04-12T01:30:13;16.03;;;6.63;;
52025;SDS011;38041;40.058;18.328;2023-04-12T01:32:47;12.80;;;6.53;;
52025;SDS011;38041;40.058;18.328;2023-04-12T01:35:19;17.40;;;6.07;;
52025;SDS011;38041;40.058;18.328;2023-04-12T01:37:47;11.03;;;5.70;;
52025;SDS011;38041;40.058;18.328;2023-04-12T01:40:16;10.37;;;5.87;;
52025;SDS011;38041;40.058;18.328;2023-04-12T01:42:44;9.40;;;6.50;;
52025;SDS011;38041;40.058;18.328;2023-04-12T01:45:12;11.10;;;6.37;;
52025;SDS011;38041;40.058;18.328;2023-04-12T01:47:40;14.13;;;7.40;;
52025;SDS011;38041;40.058;18.328;2023-04-12T01:50:15;16.00;;;6.73;;
52025;SDS011;38041;40.058;18.328;2023-04-12T01:52:48;15.73;;;8.10;;
52025;SDS011;38041;40.058;18.328;2023-04-12T01:55:20;16.20;;;6.23;;
52025;SDS011;38041;40.058;18.328;2023-04-12T01:57:48;12.47;;;7.07;;
52025;SDS011;38041;40.058;18.328;2023-04-12T02:00:16;16.57;;;7.70;;
52025;SDS011;38041;40.058;18.328;2023-04-12T02:02:44;12.60;;;7.73;;
52025;SDS011;38041;40.058;18.328;2023-04-12T02:05:12;12.83;;;7.90;;
52025;SDS011;38041;40.058;18.328;2023-04-12T02:07:40;14.47;;;8.17;;
52025;SDS011;38041;40.058;18.328;2023-04-12T02:10:11;19.97;;;8.17;;
52025;SDS011;38041;40.058;18.328;2023-04-12T02:12:40;13.57;;;7.07;;
52025;SDS011;38041;40.058;18.328;2023-04-12T02:15:08;12.20;;;7.67;;
52025;SDS011;38041;40.058;18.328;2023-04-12T02:17:36;11.73;;;7.27;;
52025;SDS011;38041;40.058;18.328;2023-04-12T02:20:04;11.37;;;8.03;;
52025;SDS011;38041;40.058;18.328;2023-04-12T02:22:35;18.00;;;8.03;;
52025;SDS011;38041;40.058;18.328;2023-04-12T02:25:03;11.73;;;7.67;;
52025;SDS011;38041;40.058;18.328;2023-04-12T02:27:34;14.07;;;9.47;;
52025;SDS011;38041;40.058;18.328;2023-04-12T02:30:01;14.37;;;7.23;;
52025;SDS011;38041;40.058;18.328;2023-04-12T02:32:32;13.50;;;6.87;;
52025;SDS011;38041;40.058;18.328;2023-04-12T02:35:13;13.07;;;7.37;;
52025;SDS011;38041;40.058;18.328;2023-04-12T02:37:48;16.92;;;7.05;;
52025;SDS011;38041;40.058;18.328;2023-04-12T02:40:15;13.17;;;6.83;;
52025;SDS011;38041;40.058;18.328;2023-04-12T02:42:43;11.83;;;8.30;;
52025;SDS011;38041;40.058;18.328;2023-04-12T02:45:12;9.73;;;6.93;;
52025;SDS011;38041;40.058;18.328;2023-04-12T02:47:41;11.87;;;7.50;;
52025;SDS011;38041;40.058;18.328;2023-04-12T02:50:10;11.60;;;7.40;;
52025;SDS011;38041;40.058;18.328;2023-04-12T02:52:50;14.93;;;7.53;;
52025;SDS011;38041;40.058;18.328;2023-04-12T02:55:19;9.37;;;7.47;;
52025;SDS011;38041;40.058;18.328;2023-04-12T02:57:47;15.00;;;7.23;;
52025;SDS011;38041;40.058;18.328;2023-04-12T03:00:16;10.60;;;6.90;;
52025;SDS011;38041;40.058;18.328;2023-04-12T03:02:47;9.93;;;6.80;;
52025;SDS011;38041;40.058;18.328;2023-04-12T03:05:21;11.90;;;5.97;;
52025;SDS011;38041;40.058;18.328;2023-04-12T03:07:50;12.10;;;6.93;;
52025;SDS011;38041;40.058;18.328;2023-04-12T03:10:23;13.20;;;7.33;;
52025;SDS011;38041;40.058;18.328;2023-04-12T03:12:59;10.77;;;7.03;;
52025;SDS011;38041;40.058;18.328;2023-04-12T03:15:32;10.83;;;6.07;;
52025;SDS011;38041;40.058;18.328;2023-04-12T03:18:01;13.03;;;6.53;;
52025;SDS011;38041;40.058;18.328;2023-04-12T03:20:33;10.27;;;6.40;;
52025;SDS011;38041;40.058;18.328;2023-04-12T03:23:05;12.83;;;6.67;;
52025;SDS011;38041;40.058;18.328;2023-04-12T03:25:36;13.07;;;7.30;;
52025;SDS011;38041;40.058;18.328;2023-04-12T03:28:24;9.23;;;5.97;;
52025;SDS011;38041;40.058;18.328;2023-04-12T03:30:52;8.97;;;6.30;;
52025;SDS011;38041;40.058;18.328;2023-04-12T03:33:23;9.77;;;5.93;;
52025;SDS011;38041;40.058;18.328;2023-04-12T03:35:56;10.10;;;5.70;;
52025;SDS011;38041;40.058;18.328;2023-04-12T03:38:27;11.07;;;6.33;;
52025;SDS011;38041;40.058;18.328;2023-04-12T03:40:55;9.87;;;5.50;;
52025;SDS011;38041;40.058;18.328;2023-04-12T03:43:32;9.47;;;5.13;;
52025;SDS011;38041;40.058;18.328;2023-04-12T03:46:05;8.03;;;5.40;;
52025;SDS011;38041;40.058;18.328;2023-04-12T03:48:33;8.60;;;6.07;;
52025;SDS011;38041;40.058;18.328;2023-04-12T03:51:02;11.63;;;5.00;;
52025;SDS011;38041;40.058;18.328;2023-04-12T03:53:39;8.43;;;4.72;;
52025;SDS011;38041;40.058;18.328;2023-04-12T03:58:42;10.53;;;6.40;;
52025;SDS011;38041;40.058;18.328;2023-04-12T04:01:10;10.50;;;6.53;;
52025;SDS011;38041;40.058;18.328;2023-04-12T04:03:42;9.47;;;6.63;;
52025;SDS011;38041;40.058;18.328;2023-04-12T04:06:18;10.23;;;6.77;;
52025;SDS011;38041;40.058;18.328;2023-04-12T04:08:45;13.63;;;6.47;;
52025;SDS011;38041;40.058;18.328;2023-04-12T04:11:13;10.43;;;6.17;;
52025;SDS011;38041;40.058;18.328;2023-04-12T04:13:47;10.10;;;6.00;;
52025;SDS011;38041;40.058;18.328;2023-04-12T04:16:18;9.40;;;6.07;;
52025;SDS011;38041;40.058;18.328;2023-04-12T04:18:48;9.87;;;6.20;;
52025;SDS011;38041;40.058;18.328;2023-04-12T04:21:18;10.97;;;6.13;;
52025;SDS011;38041;40.058;18.328;2023-04-12T04:23:53;10.07;;;6.17;;
52025;SDS011;38041;40.058;18.328;2023-04-12T04:26:21;9.37;;;6.33;;
52025;SDS011;38041;40.058;18.328;2023-04-12T04:29:18;14.03;;;7.90;;
52025;SDS011;38041;40.058;18.328;2023-04-12T04:31:46;14.00;;;7.03;;
52025;SDS011;38041;40.058;18.328;2023-04-12T04:34:16;16.90;;;7.10;;
52025;SDS011;38041;40.058;18.328;2023-04-12T04:36:46;13.30;;;7.30;;
52025;SDS011;38041;40.058;18.328;2023-04-12T04:39:21;8.27;;;5.40;;
52025;SDS011;38041;40.058;18.328;2023-04-12T04:41:49;12.20;;;6.87;;
52025;SDS011;38041;40.058;18.328;2023-04-12T04:44:34;11.38;;;7.25;;
52025;SDS011;38041;40.058;18.328;2023-04-12T04:47:05;10.93;;;7.87;;
52025;SDS011;38041;40.058;18.328;2023-04-12T04:49:34;11.27;;;7.13;;
52025;SDS011;38041;40.058;18.328;2023-04-12T04:52:23;13.47;;;9.13;;
52025;SDS011;38041;40.058;18.328;2023-04-12T04:54:56;17.20;;;8.27;;
52025;SDS011;38041;40.058;18.328;2023-04-12T04:57:30;15.53;;;8.10;;
52025;SDS011;38041;40.058;18.328;2023-04-12T04:59:59;14.93;;;7.67;;
52025;SDS011;38041;40.058;18.328;2023-04-12T05:02:26;14.07;;;7.77;;
52025;SDS011;38041;40.058;18.328;2023-04-12T05:05:00;17.03;;;10.60;;
52025;SDS011;38041;40.058;18.328;2023-04-12T05:07:31;16.30;;;9.30;;
52025;SDS011;38041;40.058;18.328;2023-04-12T05:09:59;13.63;;;8.70;;
52025;SDS011;38041;40.058;18.328;2023-04-12T05:12:29;17.97;;;10.50;;
52025;SDS011;38041;40.058;18.328;2023-04-12T05:14:57;17.87;;;10.00;;
52025;SDS011;38041;40.058;18.328;2023-04-12T05:17:34;11.97;;;7.53;;
52025;SDS011;38041;40.058;18.328;2023-04-12T05:20:02;13.53;;;7.50;;
52025;SDS011;38041;40.058;18.328;2023-04-12T05:22:34;11.10;;;6.43;;
52025;SDS011;38041;40.058;18.328;2023-04-12T05:25:02;13.03;;;7.57;;
52025;SDS011;38041;40.058;18.328;2023-04-12T05:27:33;11.40;;;8.00;;
52025;SDS011;38041;40.058;18.328;2023-04-12T05:30:04;15.07;;;6.80;;
52025;SDS011;38041;40.058;18.328;2023-04-12T05:32:33;17.83;;;6.90;;
52025;SDS011;38041;40.058;18.328;2023-04-12T05:35:02;14.03;;;6.80;;
52025;SDS011;38041;40.058;18.328;2023-04-12T05:37:30;10.97;;;7.97;;
52025;SDS011;38041;40.058;18.328;2023-04-12T05:39:58;10.20;;;6.03;;
52025;SDS011;38041;40.058;18.328;2023-04-12T05:42:25;11.90;;;7.63;;
52025;SDS011;38041;40.058;18.328;2023-04-12T05:44:56;12.57;;;7.90;;
52025;SDS011;38041;40.058;18.328;2023-04-12T05:47:24;17.63;;;10.17;;
52025;SDS011;38041;40.058;18.328;2023-04-12T05:49:54;14.80;;;9.43;;
52025;SDS011;38041;40.058;18.328;2023-04-12T05:52:23;12.87;;;9.03;;
52025;SDS011;38041;40.058;18.328;2023-04-12T05:54:51;15.30;;;8.17;;
52025;SDS011;38041;40.058;18.328;2023-04-12T05:57:21;11.30;;;7.73;;
52025;SDS011;38041;40.058;18.328;2023-04-12T05:59:48;20.73;;;13.30;;
52025;SDS011;38041;40.058;18.328;2023-04-12T06:02:16;15.60;;;9.20;;
52025;SDS011;38041;40.058;18.328;2023-04-12T06:04:44;13.07;;;8.60;;
52025;SDS011;38041;40.058;18.328;2023-04-12T06:07:16;13.87;;;8.63;;
52025;SDS011;38041;40.058;18.328;2023-04-12T06:09:45;11.87;;;7.17;;
52025;SDS011;38041;40.058;18.328;2023-04-12T06:12:14;16.00;;;10.20;;
52025;SDS011;38041;40.058;18.328;2023-04-12T06:14:41;10.97;;;7.87;;
52025;SDS011;38041;40.058;18.328;2023-04-12T06:17:09;12.90;;;7.20;;
52025;SDS011;38041;40.058;18.328;2023-04-12T06:19:38;15.97;;;10.50;;
52025;SDS011;38041;40.058;18.328;2023-04-12T06:22:08;10.87;;;7.80;;
52025;SDS011;38041;40.058;18.328;2023-04-12T06:24:38;9.60;;;6.50;;
52025;SDS011;38041;40.058;18.328;2023-04-12T06:27:07;16.60;;;11.23;;
52025;SDS011;38041;40.058;18.328;2023-04-12T06:29:36;9.50;;;5.07;;
52025;SDS011;38041;40.058;18.328;2023-04-12T06:32:04;9.17;;;4.87;;
52025;SDS011;38041;40.058;18.328;2023-04-12T06:34:32;8.57;;;4.40;;
52025;SDS011;38041;40.058;18.328;2023-04-12T06:37:04;9.27;;;3.20;;
52025;SDS011;38041;40.058;18.328;2023-04-12T06:39:32;11.40;;;5.37;;
52025;SDS011;38041;40.058;18.328;2023-04-12T06:41:59;8.27;;;5.30;;
52025;SDS011;38041;40.058;18.328;2023-04-12T06:44:27;13.07;;;5.47;;
52025;SDS011;38041;40.058;18.328;2023-04-12T06:46:56;5.70;;;3.80;;
52025;SDS011;38041;40.058;18.328;2023-04-12T06:49:24;5.17;;;3.87;;
52025;SDS011;38041;40.058;18.328;2023-04-12T06:51:52;5.07;;;3.43;;
52025;SDS011;38041;40.058;18.328;2023-04-12T06:54:19;8.40;;;3.50;;
52025;SDS011;38041;40.058;18.328;2023-04-12T06:56:47;10.07;;;4.13;;
52025;SDS011;38041;40.058;18.328;2023-04-12T06:59:15;5.53;;;3.87;;
52025;SDS011;38041;40.058;18.328;2023-04-12T07:01:43;6.03;;;3.37;;
52025;SDS011;38041;40.058;18.328;2023-04-12T07:04:11;7.93;;;3.87;;
52025;SDS011;38041;40.058;18.328;2023-04-12T07:06:40;6.63;;;3.60;;
52025;SDS011;38041;40.058;18.328;2023-04-12T07:09:08;7.80;;;3.60;;
52025;SDS011;38041;40.058;18.328;2023-04-12T07:11:36;7.07;;;3.37;;
52025;SDS011;38041;40.058;18.328;2023-04-12T07:14:03;11.77;;;4.10;;
52025;SDS011;38041;40.058;18.328;2023-04-12T07:16:31;5.60;;;3.67;;
52025;SDS011;38041;40.058;18.328;2023-04-12T07:18:59;4.97;;;2.97;;
52025;SDS011;38041;40.058;18.328;2023-04-12T07:21:27;5.50;;;2.43;;
52025;SDS011;38041;40.058;18.328;2023-04-12T07:23:55;4.93;;;2.77;;
52025;SDS011;38041;40.058;18.328;2023-04-12T07:26:22;7.80;;;3.33;;
52025;SDS011;38041;40.058;18.328;2023-04-12T07:28:50;6.20;;;3.83;;
52025;SDS011;38041;40.058;18.328;2023-04-12T07:31:18;4.87;;;3.07;;
52025;SDS011;38041;40.058;18.328;2023-04-12T07:33:45;14.03;;;3.13;;
52025;SDS011;38041;40.058;18.328;2023-04-12T07:36:13;6.57;;;3.23;;
52025;SDS011;38041;40.058;18.328;2023-04-12T07:38:42;7.67;;;3.07;;
52025;SDS011;38041;40.058;18.328;2023-04-12T07:41:09;3.37;;;2.03;;
52025;SDS011;38041;40.058;18.328;2023-04-12T07:43:37;5.00;;;2.50;;
52025;SDS011;38041;40.058;18.328;2023-04-12T07:46:05;6.00;;;1.80;;
52025;SDS011;38041;40.058;18.328;2023-04-12T07:48:34;5.83;;;2.70;;
52025;SDS011;38041;40.058;18.328;2023-04-12T07:51:02;8.47;;;2.37;;
52025;SDS011;38041;40.058;18.328;2023-04-12T07:53:30;5.03;;;2.10;;
52025;SDS011;38041;40.058;18.328;2023-04-12T07:55:57;6.63;;;2.13;;
52025;SDS011;38041;40.058;18.328;2023-04-12T07:58:25;6.73;;;2.57;;
52025;SDS011;38041;40.058;18.328;2023-04-12T08:00:53;17.57;;;9.47;;
52025;SDS011;38041;40.058;18.328;2023-04-12T08:03:23;4.97;;;2.43;;
52025;SDS011;38041;40.058;18.328;2023-04-12T08:05:51;5.40;;;2.57;;
52025;SDS011;38041;40.058;18.328;2023-04-12T08:08:19;4.13;;;1.60;;
52025;SDS011;38041;40.058;18.328;2023-04-12T08:10:48;7.03;;;2.63;;
52025;SDS011;38041;40.058;18.328;2023-04-12T08:13:16;2.40;;;1.97;;
52025;SDS011;38041;40.058;18.328;2023-04-12T08:15:44;4.07;;;2.40;;
52025;SDS011;38041;40.058;18.328;2023-04-12T08:18:15;5.53;;;2.07;;
52025;SDS011;38041;40.058;18.328;2023-04-12T08:20:42;3.80;;;2.33;;
52025;SDS011;38041;40.058;18.328;2023-04-12T08:23:10;4.93;;;2.00;;
52025;SDS011;38041;40.058;18.328;2023-04-12T08:25:38;2.70;;;1.73;;
52025;SDS011;38041;40.058;18.328;2023-04-12T08:28:05;6.50;;;2.63;;
52025;SDS011;38041;40.058;18.328;2023-04-12T08:30:36;2.93;;;1.53;;
52025;SDS011;38041;40.058;18.328;2023-04-12T08:33:04;2.97;;;1.70;;
52025;SDS011;38041;40.058;18.328;2023-04-12T08:35:32;3.07;;;1.83;;
52025;SDS011;38041;40.058;18.328;2023-04-12T08:38:00;4.67;;;2.27;;
52025;SDS011;38041;40.058;18.328;2023-04-12T08:40:34;3.40;;;1.70;;
52025;SDS011;38041;40.058;18.328;2023-04-12T08:43:01;4.77;;;1.90;;
52025;SDS011;38041;40.058;18.328;2023-04-12T08:45:34;5.33;;;1.07;;
52025;SDS011;38041;40.058;18.328;2023-04-12T08:48:03;2.90;;;1.13;;
52025;SDS011;38041;40.058;18.328;2023-04-12T08:50:31;5.90;;;1.20;;
52025;SDS011;38041;40.058;18.328;2023-04-12T08:52:59;4.43;;;1.33;;
52025;SDS011;38041;40.058;18.328;2023-04-12T08:55:27;2.47;;;1.07;;
52025;SDS011;38041;40.058;18.328;2023-04-12T08:57:57;1.97;;;1.10;;
52025;SDS011;38041;40.058;18.328;2023-04-12T09:00:25;7.27;;;1.20;;
52025;SDS011;38041;40.058;18.328;2023-04-12T09:02:53;2.70;;;1.13;;
52025;SDS011;38041;40.058;18.328;2023-04-12T09:05:26;2.97;;;1.17;;
52025;SDS011;38041;40.058;18.328;2023-04-12T09:07:54;4.23;;;1.50;;
52025;SDS011;38041;40.058;18.328;2023-04-12T09:10:29;3.13;;;0.53;;
52025;SDS011;38041;40.058;18.328;2023-04-12T09:12:58;2.87;;;0.90;;
52025;SDS011;38041;40.058;18.328;2023-04-12T09:15:26;2.43;;;1.27;;
52025;SDS011;38041;40.058;18.328;2023-04-12T09:20:30;2.87;;;0.93;;
52025;SDS011;38041;40.058;18.328;2023-04-12T09:22:58;3.50;;;0.80;;
52025;SDS011;38041;40.058;18.328;2023-04-12T09:25:35;4.50;;;1.00;;
52025;SDS011;38041;40.058;18.328;2023-04-12T09:28:16;2.77;;;1.10;;
52025;SDS011;38041;40.058;18.328;2023-04-12T09:30:45;3.27;;;0.80;;
52025;SDS011;38041;40.058;18.328;2023-04-12T09:33:21;1.53;;;0.70;;
52025;SDS011;38041;40.058;18.328;2023-04-12T09:35:49;3.83;;;0.93;;
52025;SDS011;38041;40.058;18.328;2023-04-12T09:38:17;4.03;;;1.13;;
52025;SDS011;38041;40.058;18.328;2023-04-12T09:40:44;3.27;;;0.70;;
52025;SDS011;38041;40.058;18.328;2023-04-12T09:43:12;4.83;;;1.07;;
52025;SDS011;38041;40.058;18.328;2023-04-12T09:45:41;4.90;;;0.90;;
52025;SDS011;38041;40.058;18.328;2023-04-12T09:48:17;2.07;;;1.00;;
52025;SDS011;38041;40.058;18.328;2023-04-12T09:50:45;2.57;;;1.17;;
52025;SDS011;38041;40.058;18.328;2023-04-12T09:53:15;2.20;;;0.68;;
52025;SDS011;38041;40.058;18.328;2023-04-12T09:55:44;2.03;;;1.05;;
52025;SDS011;38041;40.058;18.328;2023-04-12T09:58:14;4.90;;;1.25;;
52025;SDS011;38041;40.058;18.328;2023-04-12T10:00:44;7.78;;;2.20;;
52025;SDS011;38041;40.058;18.328;2023-04-12T10:03:12;2.83;;;1.00;;
52025;SDS011;38041;40.058;18.328;2023-04-12T10:05:40;5.25;;;1.52;;
52025;SDS011;38041;40.058;18.328;2023-04-12T10:08:10;4.28;;;1.50;;
52025;SDS011;38041;40.058;18.328;2023-04-12T10:10:38;7.93;;;1.88;;
52025;SDS011;38041;40.058;18.328;2023-04-12T10:13:06;2.65;;;1.20;;
52025;SDS011;38041;40.058;18.328;2023-04-12T10:15:36;4.00;;;1.80;;
52025;SDS011;38041;40.058;18.328;2023-04-12T10:18:07;2.67;;;1.63;;
52025;SDS011;38041;40.058;18.328;2023-04-12T10:20:38;4.70;;;2.20;;
52025;SDS011;38041;40.058;18.328;2023-04-12T10:23:09;6.82;;;3.35;;
52025;SDS011;38041;40.058;18.328;2023-04-12T10:25:38;6.32;;;3.28;;
52025;SDS011;38041;40.058;18.328;2023-04-12T10:28:15;3.20;;;1.88;;
52025;SDS011;38041;40.058;18.328;2023-04-12T10:30:44;4.70;;;2.38;;
52025;SDS011;38041;40.058;18.328;2023-04-12T10:33:15;5.97;;;1.48;;
52025;SDS011;38041;40.058;18.328;2023-04-12T10:35:56;4.38;;;2.85;;
52025;SDS011;38041;40.058;18.328;2023-04-12T10:38:26;9.15;;;2.22;;
52025;SDS011;38041;40.058;18.328;2023-04-12T10:43:36;6.80;;;3.40;;
52025;SDS011;38041;40.058;18.328;2023-04-12T10:46:04;5.05;;;3.05;;
52025;SDS011;38041;40.058;18.328;2023-04-12T10:48:53;19.65;;;11.40;;
52025;SDS011;38041;40.058;18.328;2023-04-12T10:51:21;2.78;;;1.45;;
52025;SDS011;38041;40.058;18.328;2023-04-12T10:53:52;5.32;;;2.25;;
52025;SDS011;38041;40.058;18.328;2023-04-12T10:58:58;4.25;;;2.15;;
52025;SDS011;38041;40.058;18.328;2023-04-12T11:01:30;3.83;;;1.70;;
52025;SDS011;38041;40.058;18.328;2023-04-12T11:04:18;4.47;;;2.08;;
52025;SDS011;38041;40.058;18.328;2023-04-12T11:07:01;8.55;;;1.58;;
52025;SDS011;38041;40.058;18.328;2023-04-12T11:09:56;13.30;;;7.93;;
52025;SDS011;38041;40.058;18.328;2023-04-12T11:12:33;5.30;;;2.63;;
52025;SDS011;38041;40.058;18.328;2023-04-12T11:15:01;4.07;;;1.67;;
52025;SDS011;38041;40.058;18.328;2023-04-12T11:17:55;3.53;;;1.73;;
52025;SDS011;38041;40.058;18.328;2023-04-12T11:20:25;4.25;;;2.30;;
52025;SDS011;38041;40.058;18.328;2023-04-12T11:22:53;4.05;;;1.75;;
52025;SDS011;38041;40.058;18.328;2023-04-12T11:25:23;6.20;;;4.78;;
52025;SDS011;38041;40.058;18.328;2023-04-12T11:27:52;7.55;;;4.45;;
52025;SDS011;38041;40.058;18.328;2023-04-12T11:30:26;3.38;;;1.95;;
52025;SDS011;38041;40.058;18.328;2023-04-12T11:32:54;5.68;;;4.57;;
52025;SDS011;38041;40.058;18.328;2023-04-12T11:35:22;25.33;;;16.05;;
52025;SDS011;38041;40.058;18.328;2023-04-12T11:37:53;5.53;;;2.92;;
52025;SDS011;38041;40.058;18.328;2023-04-12T11:40:24;8.20;;;3.70;;
52025;SDS011;38041;40.058;18.328;2023-04-12T11:42:52;3.67;;;1.80;;
52025;SDS011;38041;40.058;18.328;2023-04-12T11:45:19;3.70;;;1.15;;
52025;SDS011;38041;40.058;18.328;2023-04-12T11:47:47;3.95;;;1.23;;
52025;SDS011;38041;40.058;18.328;2023-04-12T11:50:26;1.60;;;1.00;;
52025;SDS011;38041;40.058;18.328;2023-04-12T11:52:54;9.88;;;2.55;;
52025;SDS011;38041;40.058;18.328;2023-04-12T11:55:22;4.72;;;1.50;;
52025;SDS011;38041;40.058;18.328;2023-04-12T11:57:52;4.50;;;2.08;;
52025;SDS011;38041;40.058;18.328;2023-04-12T12:00:21;5.10;;;1.90;;
52025;SDS011;38041;40.058;18.328;2023-04-12T12:02:51;7.95;;;2.58;;
52025;SDS011;38041;40.058;18.328;2023-04-12T12:05:29;3.25;;;1.98;;
52025;SDS011;38041;40.058;18.328;2023-04-12T12:08:02;4.53;;;2.53;;
52025;SDS011;38041;40.058;18.328;2023-04-12T12:10:36;2.05;;;1.02;;
52025;SDS011;38041;40.058;18.328;2023-04-12T12:13:12;2.75;;;0.60;;
52025;SDS011;38041;40.058;18.328;2023-04-12T12:15:43;15.77;;;9.45;;
52025;SDS011;38041;40.058;18.328;2023-04-12T12:18:11;6.65;;;0.80;;
52025;SDS011;38041;40.058;18.328;2023-04-12T12:20:48;4.18;;;1.88;;
52025;SDS011;38041;40.058;18.328;2023-04-12T12:26:20;1.33;;;0.60;;
52025;SDS011;38041;40.058;18.328;2023-04-12T12:28:49;2.50;;;1.20;;
52025;SDS011;38041;40.058;18.328;2023-04-12T12:31:17;3.58;;;1.67;;
52025;SDS011;38041;40.058;18.328;2023-04-12T12:33:46;4.57;;;1.17;;
52025;SDS011;38041;40.058;18.328;2023-04-12T12:36:17;4.82;;;0.98;;
52025;SDS011;38041;40.058;18.328;2023-04-12T12:38:51;2.50;;;0.80;;
52025;SDS011;38041;40.058;18.328;2023-04-12T12:41:23;4.47;;;1.80;;
52025;SDS011;38041;40.058;18.328;2023-04-12T12:43:51;8.77;;;4.60;;
52025;SDS011;38041;40.058;18.328;2023-04-12T12:46:19;5.95;;;4.00;;
52025;SDS011;38041;40.058;18.328;2023-04-12T12:48:47;2.58;;;1.20;;
52025;SDS011;38041;40.058;18.328;2023-04-12T12:51:15;3.42;;;1.00;;
52025;SDS011;38041;40.058;18.328;2023-04-12T12:53:46;2.20;;;0.70;;
52025;SDS011;38041;40.058;18.328;2023-04-12T12:56:14;3.58;;;0.80;;
52025;SDS011;38041;40.058;18.328;2023-04-12T12:58:42;2.03;;;0.85;;
52025;SDS011;38041;40.058;18.328;2023-04-12T13:01:09;5.25;;;3.20;;
52025;SDS011;38041;40.058;18.328;2023-04-12T13:03:37;10.15;;;2.20;;
52025;SDS011;38041;40.058;18.328;2023-04-12T13:06:05;16.65;;;3.88;;
52025;SDS011;38041;40.058;18.328;2023-04-12T13:08:33;6.53;;;2.15;;
52025;SDS011;38041;40.058;18.328;2023-04-12T13:11:02;13.15;;;1.88;;
52025;SDS011;38041;40.058;18.328;2023-04-12T13:13:30;4.93;;;2.92;;
52025;SDS011;38041;40.058;18.328;2023-04-12T13:15:58;7.63;;;2.30;;
52025;SDS011;38041;40.058;18.328;2023-04-12T13:18:27;5.10;;;2.88;;
52025;SDS011;38041;40.058;18.328;2023-04-12T13:20:55;7.35;;;2.50;;
52025;SDS011;38041;40.058;18.328;2023-04-12T13:23:22;12.95;;;5.07;;
52025;SDS011;38041;40.058;18.328;2023-04-12T13:25:50;16.58;;;9.40;;
52025;SDS011;38041;40.058;18.328;2023-04-12T13:28:18;10.52;;;4.35;;
52025;SDS011;38041;40.058;18.328;2023-04-12T13:30:46;21.75;;;14.65;;
52025;SDS011;38041;40.058;18.328;2023-04-12T13:33:14;14.27;;;8.60;;
52025;SDS011;38041;40.058;18.328;2023-04-12T13:35:44;17.55;;;10.55;;
52025;SDS011;38041;40.058;18.328;2023-04-12T13:38:11;13.05;;;6.15;;
52025;SDS011;38041;40.058;18.328;2023-04-12T13:40:39;13.50;;;9.48;;
52025;SDS011;38041;40.058;18.328;2023-04-12T13:43:07;15.80;;;9.65;;
52025;SDS011;38041;40.058;18.328;2023-04-12T13:45:34;11.75;;;7.07;;
52025;SDS011;38041;40.058;18.328;2023-04-12T13:48:02;16.90;;;11.38;;
52025;SDS011;38041;40.058;18.328;2023-04-12T13:50:30;15.18;;;7.20;;
52025;SDS011;38041;40.058;18.328;2023-04-12T13:52:57;4.05;;;2.90;;
52025;SDS011;38041;40.058;18.328;2023-04-12T13:55:25;9.98;;;5.72;;
52025;SDS011;38041;40.058;18.328;2023-04-12T13:57:53;13.65;;;8.85;;
52025;SDS011;38041;40.058;18.328;2023-04-12T14:00:21;12.57;;;5.90;;
52025;SDS011;38041;40.058;18.328;2023-04-12T14:02:49;16.65;;;9.50;;
52025;SDS011;38041;40.058;18.328;2023-04-12T14:05:17;13.40;;;7.53;;
52025;SDS011;38041;40.058;18.328;2023-04-12T14:07:44;21.77;;;12.02;;
52025;SDS011;38041;40.058;18.328;2023-04-12T14:10:15;23.83;;;12.65;;
52025;SDS011;38041;40.058;18.328;2023-04-12T14:12:42;4.90;;;4.30;;
52025;SDS011;38041;40.058;18.328;2023-04-12T14:15:10;5.10;;;2.38;;
52025;SDS011;38041;40.058;18.328;2023-04-12T14:17:38;4.38;;;1.73;;
52025;SDS011;38041;40.058;18.328;2023-04-12T14:20:07;7.15;;;2.50;;
52025;SDS011;38041;40.058;18.328;2023-04-12T14:22:36;8.27;;;2.72;;
52025;SDS011;38041;40.058;18.328;2023-04-12T14:25:04;6.53;;;3.50;;
52025;SDS011;38041;40.058;18.328;2023-04-12T14:27:31;12.30;;;6.40;;
52025;SDS011;38041;40.058;18.328;2023-04-12T14:30:01;8.32;;;6.45;;
52025;SDS011;38041;40.058;18.328;2023-04-12T14:32:28;5.72;;;3.63;;
52025;SDS011;38041;40.058;18.328;2023-04-12T14:34:56;6.32;;;3.53;;
52025;SDS011;38041;40.058;18.328;2023-04-12T14:37:24;7.38;;;3.90;;
52025;SDS011;38041;40.058;18.328;2023-04-12T14:39:52;5.30;;;3.15;;
52025;SDS011;38041;40.058;18.328;2023-04-12T14:42:20;8.40;;;4.40;;
52025;SDS011;38041;40.058;18.328;2023-04-12T14:44:48;6.32;;;2.47;;
52025;SDS011;38041;40.058;18.328;2023-04-12T14:47:16;7.07;;;1.30;;
52025;SDS011;38041;40.058;18.328;2023-04-12T14:49:44;3.78;;;1.90;;
52025;SDS011;38041;40.058;18.328;2023-04-12T14:52:11;4.68;;;1.10;;
52025;SDS011;38041;40.058;18.328;2023-04-12T14:54:39;5.25;;;1.30;;
52025;SDS011;38041;40.058;18.328;2023-04-12T14:57:07;4.30;;;1.15;;
52025;SDS011;38041;40.058;18.328;2023-04-12T14:59:34;4.35;;;1.83;;
52025;SDS011;38041;40.058;18.328;2023-04-12T15:02:02;4.20;;;1.23;;
52025;SDS011;38041;40.058;18.328;2023-04-12T15:04:30;3.75;;;1.08;;
52025;SDS011;38041;40.058;18.328;2023-04-12T15:06:58;4.93;;;1.23;;
52025;SDS011;38041;40.058;18.328;2023-04-12T15:09:25;2.75;;;1.08;;